Columbus, New Mexico
Current Conditions -  °F | °C
As of 1:53 AM on Sunday 23 Nov 2014 (Local Time) from KDMN Reporting Station
Clear Clear  
Wind Chill: 41°   Ceiling: Unl
Heat Index: 48°   Visibility: 10mi
Dew Point: 19°   Wind: 18mph
Humidity: 32%   Direction: 250°WSW
Pressure: 29.9"   Gusts: 26mph
Location:  31.83°N, 107.64°W
Report Text: KDMN 230853Z AUTO 25016G23KT 10SM CLR 09/M07 A2990 RMK AO2 SLP081 T00891072 58008
Loading
Personal Weather Stations






























Interactive Weather Map New forecast layout! Learn more

10-Day Weather Forecast

Advertisements
Track Severe Weather on mobile